CheckWX is a tool to help pilots better visualize weather data.  It is not intended as a substitute for an official pre-flight weather briefing.

12:00:17 UTC

AYPY METAR
Port Moresby Jacksons International Airport
Port Moresby, Papua New Guinea
Current

60 mins ago

AYPY 251100Z 31010KT 9999 BKN040 25/24 Q1012
Observed
Mar-25 @ 11:00 UTC
Wind
  • 310° at 10 KTS
Visibility
10,000+ meters
Flight Rules
VFR
Cloud Levels
  • Broken at 4,000' AGL
Temperature
25°C / 77°F
Dewpoint
24°C / 75°F
Humidity
94%
Altimeter
29.88" Hg
Pressure
1011.92 hPa
Previous

2 hours ago

AYPY 251000Z 31010KT 9999 SHRA SCT025 BKN040 25/24 Q1012
Observed
Mar-25 @ 10:00 UTC
Wind
  • 310° at 10 KTS
Visibility
10,000+ meters
Flight Rules
VFR
Conditions
Rain
Cloud Levels
  • Scattered at 2,500' AGL
  • Broken at 4,000' AGL
Temperature
25°C / 77°F
Dewpoint
24°C / 75°F
Humidity
94%
Altimeter
29.88" Hg
Pressure
1011.92 hPa
Previous

4 hours ago

AYPY 250800Z 10005KT 9999 SCT030 27/25 Q1010 RMKS:BUILD UPS ASSW RASH IN AREA
Observed
Mar-25 @ 08:00 UTC
Wind
  • 100° at 5 KTS
Visibility
10,000+ meters
Flight Rules
VFR
Cloud Levels
  • Scattered at 3,000' AGL
Temperature
27°C / 81°F
Dewpoint
25°C / 77°F
Humidity
89%
Altimeter
29.82" Hg
Pressure
1009.92 hPa